Time;durP1;ratioP1;P1;durP2;ratioP2;P2;SDS_P1;SDS_P2;PMS_P1;PMS_P2;Temp;Humidity;BMP_temperature;BMP_pressure;BME280_temperature;BME280_humidity;BME280_pressure;Samples;Min_cycle;Max_cycle;Signal;HPM_P1;HPM_P2
2019/05/29 00:01:06;;;;;;;1.5;0.3;;;;;;;24.46;35.50977;1001.996;;;;
2019/05/29 00:03:31;;;;;;;0.7;0.3;;;;;;;24.47;35.53418;1002.049;;;;
2019/05/29 00:05:55;;;;;;;1.9;0.4;;;;;;;24.47;35.58203;1002.07;;;;
2019/05/29 00:08:20;;;;;;;0.6;0.3;;;;;;;24.45;35.7002;1002.105;;;;
2019/05/29 00:10:52;;;;;;;1.6;0.2;;;;;;;24.43;35.6748;1002.146;;;;
2019/05/29 00:13:26;;;;;;;1.3;0.4;;;;;;;24.42;35.68652;1002.144;;;;
2019/05/29 00:15:52;;;;;;;1.3;0.4;;;;;;;24.41;35.67383;1002.166;;;;
2019/05/29 00:18:17;;;;;;;1.5;0.3;;;;;;;24.39;35.73047;1002.188;;;;
2019/05/29 00:20:42;;;;;;;0.8;0.4;;;;;;;24.31;35.78516;1002.192;;;;
2019/05/29 00:23:07;;;;;;;1.5;0.5;;;;;;;24.38;35.70703;1002.167;;;;
2019/05/29 00:25:32;;;;;;;1.1;0.4;;;;;;;24.38;35.63477;1002.18;;;;
2019/05/29 00:27:57;;;;;;;2.3;0.5;;;;;;;24.38;35.6709;1002.245;;;;
2019/05/29 00:30:30;;;;;;;1.1;0.4;;;;;;;24.36;35.62109;1002.237;;;;
2019/05/29 00:32:55;;;;;;;0.4;0.3;;;;;;;24.38;35.64746;1002.288;;;;
2019/05/29 00:35:20;;;;;;;1.2;0.4;;;;;;;24.39;35.67188;1002.281;;;;
2019/05/29 00:37:45;;;;;;;0.8;0.5;;;;;;;24.31;35.59375;1002.33;;;;
2019/05/29 00:40:10;;;;;;;0.9;0.6;;;;;;;24.2;35.74023;1002.377;;;;
2019/05/29 00:42:35;;;;;;;0.7;0.4;;;;;;;24.29;35.55566;1002.421;;;;
2019/05/29 00:45:00;;;;;;;0.8;0.4;;;;;;;24.32;35.70215;1002.423;;;;
2019/05/29 00:47:25;;;;;;;1.3;0.4;;;;;;;24.31;35.62891;1002.408;;;;
2019/05/29 00:50:13;;;;;;;0.8;0.3;;;;;;;24.33;35.60645;1002.457;;;;
2019/05/29 00:52:38;;;;;;;1.2;0.5;;;;;;;24.33;35.47559;1002.49;;;;
2019/05/29 00:55:04;;;;;;;0.8;0.6;;;;;;;24.31;35.56934;1002.51;;;;
2019/05/29 00:57:29;;;;;;;1;0.5;;;;;;;24.34;35.57129;1002.568;;;;
2019/05/29 00:59:54;;;;;;;0.8;0.7;;;;;;;24.32;35.66602;1002.552;;;;
2019/05/29 01:02:19;;;;;;;1;0.6;;;;;;;24.33;35.52344;1002.591;;;;
2019/05/29 01:04:44;;;;;;;0.9;0.6;;;;;;;24.32;35.53516;1002.568;;;;
2019/05/29 01:07:09;;;;;;;2;0.7;;;;;;;24.33;35.58301;1002.61;;;;
2019/05/29 01:09:35;;;;;;;1.4;0.5;;;;;;;24.31;35.65332;1002.65;;;;
2019/05/29 01:12:00;;;;;;;1.1;0.6;;;;;;;24.32;35.61914;1002.674;;;;
2019/05/29 01:14:25;;;;;;;0.6;0.6;;;;;;;24.33;35.6543;1002.695;;;;
2019/05/29 01:16:52;;;;;;;0.7;0.5;;;;;;;24.35;35.57227;1002.686;;;;
2019/05/29 01:19:26;;;;;;;0.7;0.6;;;;;;;24.36;35.54883;1002.727;;;;
2019/05/29 01:21:42;;;;;;;1;0.7;;;;;;;24.34;35.59668;1002.724;;;;
2019/05/29 01:24:07;;;;;;;0.7;0.5;;;;;;;24.33;35.64258;1002.749;;;;
2019/05/29 01:26:32;;;;;;;1;0.6;;;;;;;24.32;35.61914;1002.743;;;;
2019/05/29 01:28:58;;;;;;;1;0.6;;;;;;;24.32;35.67773;1002.775;;;;
2019/05/29 01:31:23;;;;;;;0.5;0.5;;;;;;;24.33;35.67871;1002.786;;;;
2019/05/29 01:33:48;;;;;;;0.7;0.5;;;;;;;24.33;35.70215;1002.794;;;;
2019/05/29 01:36:13;;;;;;;0.7;0.6;;;;;;;24.33;35.73828;1002.8;;;;
2019/05/29 01:38:38;;;;;;;0.9;0.6;;;;;;;24.32;35.81055;1002.883;;;;
2019/05/29 01:41:03;;;;;;;0.7;0.5;;;;;;;24.31;35.80859;1002.849;;;;
2019/05/29 01:43:39;;;;;;;1.3;0.7;;;;;;;24.29;35.85645;1002.915;;;;
2019/05/29 01:46:10;;;;;;;0.6;0.6;;;;;;;24.3;35.83203;1002.937;;;;
2019/05/29 01:48:35;;;;;;;1.4;0.9;;;;;;;24.27;35.85352;1002.98;;;;
2019/05/29 01:51:00;;;;;;;1;0.8;;;;;;;24.18;36.00195;1003;;;;
2019/05/29 01:53:25;;;;;;;1.3;0.8;;;;;;;24.25;35.88867;1003.004;;;;
2019/05/29 01:55:50;;;;;;;1.2;1.1;;;;;;;24.26;35.84082;1003.036;;;;
2019/05/29 01:58:15;;;;;;;1.4;1.1;;;;;;;24.23;35.87402;1003.061;;;;
2019/05/29 02:00:56;;;;;;;1;0.8;;;;;;;24.24;35.8877;1003.098;;;;
2019/05/29 02:03:21;;;;;;;1.2;0.9;;;;;;;24.24;35.93555;1003.118;;;;
2019/05/29 02:05:46;;;;;;;1.1;0.9;;;;;;;24.26;35.82813;1003.156;;;;
2019/05/29 02:08:11;;;;;;;0.7;0.7;;;;;;;24.26;35.88867;1003.115;;;;
2019/05/29 02:10:36;;;;;;;1.3;0.8;;;;;;;24.26;35.84082;1003.142;;;;
2019/05/29 02:13:02;;;;;;;1.9;0.8;;;;;;;24.25;35.87598;1003.217;;;;
2019/05/29 02:15:28;;;;;;;1.3;0.7;;;;;;;24.26;35.84082;1003.263;;;;
2019/05/29 02:18:00;;;;;;;0.9;0.8;;;;;;;24.25;35.87598;1003.275;;;;
2019/05/29 02:20:32;;;;;;;1;0.9;;;;;;;24.24;35.78027;1003.321;;;;
2019/05/29 02:22:54;;;;;;;1.2;1.1;;;;;;;24.26;35.79297;1003.325;;;;
2019/05/29 02:25:19;;;;;;;0.8;0.8;;;;;;;24.26;35.79297;1003.322;;;;
2019/05/29 02:27:46;;;;;;;1.4;0.9;;;;;;;24.25;35.82813;1003.359;;;;
2019/05/29 02:30:11;;;;;;;1.7;1.1;;;;;;;24.24;35.85156;1003.357;;;;
2019/05/29 02:32:36;;;;;;;1.2;0.9;;;;;;;24.25;35.79199;1003.387;;;;
2019/05/29 02:35:14;;;;;;;1.5;1;;;;;;;24.24;35.80371;1003.411;;;;
2019/05/29 02:37:39;;;;;;;1.9;1;;;;;;;24.23;35.77832;1003.391;;;;
2019/05/29 02:40:04;;;;;;;1.5;0.9;;;;;;;24.19;35.81055;1003.441;;;;
2019/05/29 02:42:29;;;;;;;1.6;1;;;;;;;24.21;35.89648;1003.448;;;;
2019/05/29 02:44:54;;;;;;;1.2;1.1;;;;;;;24.15;35.85547;1003.488;;;;
2019/05/29 02:47:20;;;;;;;2.1;1.4;;;;;;;24.14;35.85547;1003.543;;;;
2019/05/29 02:49:45;;;;;;;1.8;1.4;;;;;;;24.16;35.76074;1003.534;;;;
2019/05/29 02:52:10;;;;;;;1.7;1.6;;;;;;;24.05;35.9082;1003.555;;;;
2019/05/29 02:54:35;;;;;;;1.3;1;;;;;;;24.1;35.99609;1003.572;;;;
2019/05/29 02:57:00;;;;;;;1.3;1.2;;;;;;;24.09;35.9834;1003.623;;;;
2019/05/29 02:59:27;;;;;;;1.9;1.8;;;;;;;24.07;35.87402;1003.642;;;;
2019/05/29 03:01:55;;;;;;;1.9;1.7;;;;;;;24.08;35.99414;1003.653;;;;
2019/05/29 03:04:21;;;;;;;1.4;1.1;;;;;;;24.11;35.93652;1003.68;;;;
2019/05/29 03:06:46;;;;;;;2.1;2;;;;;;;23.91;36.18359;1003.667;;;;
2019/05/29 03:09:11;;;;;;;1.6;1.4;;;;;;;23.99;36.13086;1003.692;;;;
2019/05/29 03:11:49;;;;;;;1.7;1.4;;;;;;;24.05;36.05176;1003.75;;;;
2019/05/29 03:14:14;;;;;;;1.3;1.2;;;;;;;24.02;36.01367;1003.799;;;;
2019/05/29 03:16:39;;;;;;;1.7;1.3;;;;;;;23.97;36.15234;1003.776;;;;
2019/05/29 03:19:16;;;;;;;2;1.4;;;;;;;24.04;36.02637;1003.811;;;;
2019/05/29 03:21:46;;;;;;;1.8;1.4;;;;;;;24.03;35.97852;1003.826;;;;
2019/05/29 03:24:11;;;;;;;1.9;1.8;;;;;;;24.03;35.97754;1003.885;;;;
2019/05/29 03:26:36;;;;;;;2;1.5;;;;;;;23.99;36.05859;1003.942;;;;
2019/05/29 03:29:01;;;;;;;2.5;2.3;;;;;;;23.88;36.24121;1003.921;;;;
2019/05/29 03:31:27;;;;;;;1.7;1.6;;;;;;;23.98;36.06934;1003.975;;;;
2019/05/29 03:33:52;;;;;;;1.5;1.4;;;;;;;24.02;36.02539;1004.027;;;;
2019/05/29 03:36:17;;;;;;;2;1.8;;;;;;;23.85;36.2627;1004.069;;;;
2019/05/29 03:38:42;;;;;;;1.9;1.4;;;;;;;23.93;36.19629;1004.117;;;;
2019/05/29 03:41:07;;;;;;;2.1;2;;;;;;;23.84;36.29688;1004.144;;;;
2019/05/29 03:43:32;;;;;;;1.8;1.7;;;;;;;23.84;36.35742;1004.168;;;;
2019/05/29 03:45:57;;;;;;;1.9;1.7;;;;;;;23.93;36.16113;1004.188;;;;
2019/05/29 03:48:22;;;;;;;2.7;2.5;;;;;;;23.82;36.36719;1004.195;;;;
2019/05/29 03:50:47;;;;;;;2;1.9;;;;;;;23.78;36.4834;1004.207;;;;
2019/05/29 03:53:12;;;;;;;1.5;1.4;;;;;;;23.87;36.2998;1004.215;;;;
2019/05/29 03:55:38;;;;;;;2.2;2.1;;;;;;;23.79;36.37695;1004.241;;;;
2019/05/29 03:58:04;;;;;;;2.3;2;;;;;;;23.79;36.41309;1004.278;;;;
2019/05/29 04:02:48;;;;;;;2.6;2.4;;;;;;;23.62;36.75684;1004.363;;;;
2019/05/29 04:05:13;;;;;;;1.6;1.5;;;;;;;23.83;36.41602;1004.36;;;;
2019/05/29 04:07:43;;;;;;;1.6;1.5;;;;;;;23.88;36.30078;1004.385;;;;
2019/05/29 04:10:10;;;;;;;1.9;1.5;;;;;;;23.88;36.31152;1004.407;;;;
2019/05/29 04:12:34;;;;;;;1.8;1.4;;;;;;;23.89;36.33691;1004.461;;;;
2019/05/29 04:15:00;;;;;;;1.8;1.2;;;;;;;23.93;36.23242;1004.479;;;;
2019/05/29 04:17:25;;;;;;;1.6;1.5;;;;;;;23.9;36.24219;1004.517;;;;
2019/05/29 04:19:50;;;;;;;1.2;1.2;;;;;;;23.92;36.25586;1004.58;;;;
2019/05/29 04:22:15;;;;;;;1.6;1.2;;;;;;;23.9;36.30176;1004.649;;;;
2019/05/29 04:24:40;;;;;;;1.8;1.4;;;;;;;23.91;36.30176;1004.71;;;;
2019/05/29 04:27:05;;;;;;;2.1;1.5;;;;;;;23.92;36.29199;1004.746;;;;
2019/05/29 04:29:30;;;;;;;1;1;;;;;;;23.96;36.23438;1004.779;;;;
2019/05/29 04:31:55;;;;;;;1.3;1.2;;;;;;;23.97;36.19922;1004.838;;;;
2019/05/29 04:34:20;;;;;;;1.2;1.1;;;;;;;23.98;36.18945;1004.82;;;;
2019/05/29 04:36:45;;;;;;;1.2;1.1;;;;;;;23.98;36.20117;1004.854;;;;
2019/05/29 04:39:10;;;;;;;1.2;1.1;;;;;;;23.98;36.21289;1004.891;;;;
2019/05/29 04:41:47;;;;;;;1.3;1.2;;;;;;;23.97;36.21289;1004.909;;;;
2019/05/29 04:44:22;;;;;;;1.7;1.6;;;;;;;23.98;36.21289;1004.982;;;;
2019/05/29 04:46:52;;;;;;;1.6;1.5;;;;;;;23.93;36.30469;1005.022;;;;
2019/05/29 04:49:17;;;;;;;1.3;1.2;;;;;;;24;36.21484;1005.052;;;;
2019/05/29 04:51:42;;;;;;;1.4;1.3;;;;;;;24;36.21484;1005.052;;;;
2019/05/29 04:54:14;;;;;;;1.1;1.1;;;;;;;24.03;36.16992;1005.098;;;;
2019/05/29 04:56:47;;;;;;;0.9;0.9;;;;;;;24.04;36.14648;1005.117;;;;
2019/05/29 04:59:12;;;;;;;0.9;0.9;;;;;;;24.06;36.14746;1005.161;;;;
2019/05/29 05:01:37;;;;;;;1.3;1.2;;;;;;;24.06;36.1123;1005.156;;;;
2019/05/29 05:04:10;;;;;;;1;1;;;;;;;24.06;36.1123;1005.207;;;;
2019/05/29 05:06:41;;;;;;;1;1;;;;;;;24.08;36.08984;1005.267;;;;
2019/05/29 05:09:07;;;;;;;1.2;1.1;;;;;;;24.06;36.13574;1005.267;;;;
2019/05/29 05:11:33;;;;;;;1.4;1.3;;;;;;;24.02;36.16895;1005.324;;;;
2019/05/29 05:14:00;;;;;;;1.6;1.5;;;;;;;24.04;36.1582;1005.33;;;;
2019/05/29 05:16:25;;;;;;;1.6;1.5;;;;;;;24.01;36.2627;1005.359;;;;
2019/05/29 05:18:50;;;;;;;1.7;1.6;;;;;;;23.99;36.38086;1005.389;;;;
2019/05/29 05:21:15;;;;;;;1.7;1.6;;;;;;;23.93;36.79492;1005.397;;;;
2019/05/29 05:23:40;;;;;;;1.3;1.2;;;;;;;23.95;36.76074;1005.416;;;;
2019/05/29 05:26:05;;;;;;;1.6;1.4;;;;;;;23.98;36.64355;1005.436;;;;
2019/05/29 05:28:30;;;;;;;1.1;1.1;;;;;;;23.98;36.5957;1005.429;;;;
2019/05/29 05:30:55;;;;;;;1.2;1.1;;;;;;;24;36.62207;1005.485;;;;
2019/05/29 05:33:20;;;;;;;1.6;1.5;;;;;;;23.92;36.84277;1005.541;;;;
2019/05/29 05:35:45;;;;;;;1.8;1.7;;;;;;;23.88;36.89746;1005.554;;;;
2019/05/29 05:38:11;;;;;;;2;1.7;;;;;;;23.86;36.93262;1005.588;;;;
2019/05/29 05:40:36;;;;;;;1.1;1.1;;;;;;;23.94;36.96387;1005.619;;;;
2019/05/29 05:43:01;;;;;;;1.4;1.3;;;;;;;23.92;36.89063;1005.645;;;;
2019/05/29 05:45:32;;;;;;;1.3;1.2;;;;;;;23.91;36.92383;1005.713;;;;
2019/05/29 05:48:01;;;;;;;1.8;1;;;;;;;23.96;36.92871;1005.718;;;;
2019/05/29 05:50:26;;;;;;;1.1;1;;;;;;;24.03;36.82715;1005.705;;;;
2019/05/29 05:52:51;;;;;;;1.3;1.2;;;;;;;24.01;36.76563;1005.754;;;;
2019/05/29 05:55:23;;;;;;;1.2;1.1;;;;;;;24.05;36.7334;1005.796;;;;
2019/05/29 05:57:48;;;;;;;1.3;1.2;;;;;;;24.07;36.6748;1005.79;;;;
2019/05/29 06:00:34;;;;;;;2.1;1.7;;;;;;;24;36.80078;1005.882;;;;
2019/05/29 06:02:58;;;;;;;1.2;1.1;;;;;;;24.03;36.89844;1005.893;;;;
2019/05/29 06:05:28;;;;;;;1.8;1.3;;;;;;;24.08;36.86719;1005.929;;;;
2019/05/29 06:08:04;;;;;;;2.5;1.4;;;;;;;24.04;36.87598;1005.971;;;;
2019/05/29 06:10:29;;;;;;;1.3;0.9;;;;;;;24.11;36.83398;1006.012;;;;
2019/05/29 06:12:54;;;;;;;1.2;1.1;;;;;;;24.12;36.77539;1006.04;;;;
2019/05/29 06:15:21;;;;;;;1.4;1.1;;;;;;;24.15;36.76563;1006.04;;;;
2019/05/29 06:17:46;;;;;;;0.8;0.8;;;;;;;24.18;36.67188;1006.059;;;;
2019/05/29 06:20:11;;;;;;;1;0.9;;;;;;;24.19;36.66016;1006.095;;;;
2019/05/29 06:22:36;;;;;;;2.1;1.3;;;;;;;24.18;36.68457;1006.154;;;;
2019/05/29 06:25:01;;;;;;;1.5;1;;;;;;;24.16;36.75391;1006.189;;;;
2019/05/29 06:27:26;;;;;;;1.4;1.1;;;;;;;24.22;36.65137;1006.171;;;;
2019/05/29 06:29:51;;;;;;;1.2;0.9;;;;;;;24.25;36.59375;1006.168;;;;
2019/05/29 06:32:20;;;;;;;1;1;;;;;;;24.26;36.52344;1006.149;;;;
2019/05/29 06:34:46;;;;;;;1.2;1.1;;;;;;;24.29;36.50195;1006.185;;;;
2019/05/29 06:37:12;;;;;;;1.4;1;;;;;;;24.3;36.47852;1006.194;;;;
2019/05/29 06:39:54;;;;;;;1.8;1.1;;;;;;;24.31;36.4668;1006.245;;;;
2019/05/29 06:42:22;;;;;;;1.2;1.1;;;;;;;24.31;36.4668;1006.259;;;;
2019/05/29 06:45:07;;;;;;;1.1;1;;;;;;;24.31;36.4668;1006.291;;;;
2019/05/29 06:47:47;;;;;;;1.2;0.9;;;;;;;24.31;36.49121;1006.337;;;;
2019/05/29 06:50:13;;;;;;;2.2;1.2;;;;;;;24.17;36.81445;1006.349;;;;
2019/05/29 06:52:45;;;;;;;1.6;1.3;;;;;;;24.25;36.62988;1006.382;;;;
2019/05/29 06:55:19;;;;;;;1.6;1.5;;;;;;;24.26;36.69043;1006.434;;;;
2019/05/29 06:57:44;;;;;;;1.3;1.2;;;;;;;24.32;36.51563;1006.448;;;;
2019/05/29 07:00:09;;;;;;;2.5;1.8;;;;;;;24.33;36.68359;1006.497;;;;
2019/05/29 07:02:34;;;;;;;2.7;1.4;;;;;;;24.38;36.47266;1006.512;;;;
2019/05/29 07:04:59;;;;;;;2.4;1.2;;;;;;;24.47;36.43164;1006.541;;;;
2019/05/29 07:07:24;;;;;;;2.3;1.5;;;;;;;24.42;36.54883;1006.592;;;;
2019/05/29 07:09:52;;;;;;;1.8;1.5;;;;;;;24.43;36.82422;1006.578;;;;
2019/05/29 07:12:18;;;;;;;2.1;1.4;;;;;;;24.53;36.79688;1006.678;;;;
2019/05/29 07:14:49;;;;;;;2;1.2;;;;;;;24.57;36.5957;1006.7;;;;
2019/05/29 07:17:19;;;;;;;2;1.4;;;;;;;24.55;36.54688;1006.724;;;;
2019/05/29 07:19:44;;;;;;;1.8;1.3;;;;;;;24.52;36.80762;1006.731;;;;
2019/05/29 07:22:09;;;;;;;2;1.5;;;;;;;24.41;37.25293;1006.746;;;;
2019/05/29 07:24:44;;;;;;;2.3;1.6;;;;;;;24.28;37.50586;1006.777;;;;
2019/05/29 07:27:09;;;;;;;2.3;1.4;;;;;;;24.31;37.52051;1006.807;;;;
2019/05/29 07:29:34;;;;;;;4.2;1.5;;;;;;;24.24;37.7666;1006.788;;;;
2019/05/29 07:32:00;;;;;;;2.6;1.6;;;;;;;24.31;37.73535;1006.874;;;;
2019/05/29 07:34:25;;;;;;;4.1;1.5;;;;;;;24.3;37.71094;1006.874;;;;
2019/05/29 07:36:52;;;;;;;4.2;2.2;;;;;;;24.19;37.8457;1006.872;;;;
2019/05/29 07:39:24;;;;;;;3.2;1.8;;;;;;;24.14;37.84082;1006.88;;;;
2019/05/29 07:41:48;;;;;;;4.3;1.9;;;;;;;24.12;37.82813;1006.9;;;;
2019/05/29 07:44:14;;;;;;;2.7;2.1;;;;;;;24.25;37.53906;1006.969;;;;
2019/05/29 07:46:39;;;;;;;1.9;1.7;;;;;;;24.27;37.43359;1006.957;;;;
2019/05/29 07:49:04;;;;;;;4.6;2;;;;;;;24.27;37.37402;1006.935;;;;
2019/05/29 07:51:30;;;;;;;1.8;1.5;;;;;;;24.27;37.39746;1006.982;;;;
2019/05/29 07:53:54;;;;;;;2.8;1.8;;;;;;;24.24;37.44238;1006.995;;;;
2019/05/29 07:56:19;;;;;;;4.1;2;;;;;;;24.37;37.17969;1007.041;;;;
2019/05/29 07:58:44;;;;;;;2.6;2.4;;;;;;;24.25;37.41992;1007.054;;;;
2019/05/29 08:01:09;;;;;;;2.2;1.8;;;;;;;24.25;37.51465;1007.092;;;;
2019/05/29 08:03:35;;;;;;;3.5;2.2;;;;;;;24.09;37.80078;1007.118;;;;
2019/05/29 08:06:00;;;;;;;2.5;2.3;;;;;;;24.07;37.67871;1007.153;;;;
2019/05/29 08:08:25;;;;;;;3.1;2.2;;;;;;;24.22;37.59668;1007.09;;;;
2019/05/29 08:10:51;;;;;;;2.3;2;;;;;;;24.04;37.78418;1007.144;;;;
2019/05/29 08:13:16;;;;;;;2.4;2.2;;;;;;;24.26;37.47949;1007.174;;;;
2019/05/29 08:15:46;;;;;;;2.3;1.6;;;;;;;24.13;37.66113;1007.163;;;;
2019/05/29 08:18:11;;;;;;;2.1;1.7;;;;;;;24.29;37.20801;1007.199;;;;
2019/05/29 08:20:36;;;;;;;2.3;1.7;;;;;;;24.2;37.54688;1007.224;;;;
2019/05/29 08:23:03;;;;;;;2.4;1.9;;;;;;;24.16;37.61523;1007.214;;;;
2019/05/29 08:25:28;;;;;;;2.7;1.5;;;;;;;24.16;37.55664;1007.212;;;;
2019/05/29 08:27:59;;;;;;;3;2.2;;;;;;;24.33;37.23438;1007.226;;;;
2019/05/29 08:30:30;;;;;;;2.1;1.5;;;;;;;24.37;37.01172;1007.244;;;;
2019/05/29 08:32:55;;;;;;;2;1.8;;;;;;;24.63;36.54102;1007.282;;;;
2019/05/29 08:35:24;;;;;;;3.1;1.9;;;;;;;24.63;36.48047;1007.287;;;;
2019/05/29 08:37:58;;;;;;;3;2;;;;;;;24.72;36.41699;1007.307;;;;
2019/05/29 08:40:25;;;;;;;3.7;2.2;;;;;;;24.72;36.32129;1007.355;;;;
2019/05/29 08:42:50;;;;;;;2.7;1.9;;;;;;;24.7;36.35547;1007.356;;;;
2019/05/29 08:45:15;;;;;;;1.9;1.5;;;;;;;24.89;35.97461;1007.386;;;;
2019/05/29 08:47:40;;;;;;;1.7;1.5;;;;;;;24.94;35.75195;1007.401;;;;
2019/05/29 08:50:06;;;;;;;1.5;1.4;;;;;;;24.91;35.76172;1007.395;;;;
2019/05/29 08:52:31;;;;;;;4.3;1.7;;;;;;;24.85;35.86426;1007.408;;;;
2019/05/29 08:54:56;;;;;;;1.6;1.5;;;;;;;24.85;35.90039;1007.455;;;;
2019/05/29 08:57:21;;;;;;;1.7;1.3;;;;;;;24.9;35.75977;1007.463;;;;
2019/05/29 08:59:46;;;;;;;2.2;1.4;;;;;;;24.91;35.70117;1007.459;;;;
2019/05/29 09:02:11;;;;;;;1.8;1.4;;;;;;;24.96;35.57324;1007.513;;;;
2019/05/29 09:04:37;;;;;;;1.7;1.6;;;;;;;24.92;35.67773;1007.519;;;;
2019/05/29 09:07:02;;;;;;;1.9;1.3;;;;;;;24.96;35.53809;1007.536;;;;
2019/05/29 09:09:27;;;;;;;1.2;1.1;;;;;;;24.96;35.50098;1007.54;;;;
2019/05/29 09:12:01;;;;;;;1.3;1.1;;;;;;;24.96;35.50195;1007.567;;;;
2019/05/29 09:14:26;;;;;;;2.6;1.3;;;;;;;24.93;35.61816;1007.587;;;;
2019/05/29 09:16:51;;;;;;;2.4;1.6;;;;;;;24.88;35.77051;1007.597;;;;
2019/05/29 09:19:16;;;;;;;1.2;1.1;;;;;;;24.85;35.80469;1007.604;;;;
2019/05/29 09:21:41;;;;;;;1.6;1.3;;;;;;;24.82;35.83789;1007.623;;;;
2019/05/29 09:24:06;;;;;;;3;1.7;;;;;;;24.87;35.78223;1007.63;;;;
2019/05/29 09:26:31;;;;;;;2.3;0.9;;;;;;;24.93;35.58398;1007.646;;;;
2019/05/29 09:28:56;;;;;;;1.4;1.1;;;;;;;24.91;35.60547;1007.662;;;;
2019/05/29 09:31:22;;;;;;;1.9;1.2;;;;;;;24.96;38.49805;1007.721;;;;
2019/05/29 09:33:47;;;;;;;1.4;1;;;;;;;24.95;37.26367;1007.74;;;;
2019/05/29 09:36:23;;;;;;;1.7;1.1;;;;;;;24.88;37.7002;1007.748;;;;
2019/05/29 09:38:48;;;;;;;2.1;1.4;;;;;;;24.92;37.49902;1007.74;;;;
2019/05/29 09:41:13;;;;;;;2.3;1.5;;;;;;;24.9;37.50977;1007.799;;;;
2019/05/29 09:43:41;;;;;;;2.4;1.6;;;;;;;24.77;36.66016;1007.791;;;;
2019/05/29 09:46:06;;;;;;;2.7;1.7;;;;;;;24.77;36.87598;1007.767;;;;
2019/05/29 09:48:31;;;;;;;2.4;1.5;;;;;;;24.88;37.05273;1007.814;;;;
2019/05/29 09:50:57;;;;;;;2.2;1.4;;;;;;;24.93;37.0332;1007.832;;;;
2019/05/29 09:53:29;;;;;;;2.9;1.3;;;;;;;25;37.32617;1007.854;;;;
2019/05/29 09:55:54;;;;;;;3.3;1.5;;;;;;;24.93;37.09277;1007.8;;;;
2019/05/29 09:58:39;;;;;;;3.5;1.4;;;;;;;24.96;37.23926;1007.864;;;;
2019/05/29 10:01:04;;;;;;;2.9;1.5;;;;;;;25.06;37.22363;1007.854;;;;
2019/05/29 10:03:37;;;;;;;2.7;1.5;;;;;;;25.05;36.31152;1007.866;;;;
2019/05/29 10:06:14;;;;;;;1.2;1.2;;;;;;;25.1;37.32324;1007.946;;;;
2019/05/29 10:08:48;;;;;;;2.3;1.8;;;;;;;25;36.5;1007.964;;;;
2019/05/29 10:11:20;;;;;;;1.9;1.6;;;;;;;25.06;36.32422;1007.954;;;;
2019/05/29 10:13:45;;;;;;;1.7;1.3;;;;;;;25.07;37.20117;1007.992;;;;
2019/05/29 10:16:10;;;;;;;2.3;1.1;;;;;;;25.12;36.80957;1007.975;;;;
2019/05/29 10:18:36;;;;;;;2.4;1.4;;;;;;;25.18;36.71777;1007.963;;;;
2019/05/29 10:21:01;;;;;;;2.6;1.8;;;;;;;25.14;36.75098;1008.006;;;;
2019/05/29 10:23:38;;;;;;;2.5;1.6;;;;;;;25.03;36.04688;1008.015;;;;
2019/05/29 10:26:20;;;;;;;2.1;1.5;;;;;;;25.07;36.76953;1008.04;;;;
2019/05/29 10:29:07;;;;;;;2.8;1.9;;;;;;;24.92;36.36133;1008.07;;;;
2019/05/29 10:31:33;;;;;;;2.2;1.5;;;;;;;24.95;36.73633;1008.092;;;;
2019/05/29 10:33:58;;;;;;;2;1.4;;;;;;;25.06;35.88086;1008.123;;;;
2019/05/29 10:36:23;;;;;;;2;1.2;;;;;;;25.2;36.84082;1008.104;;;;
2019/05/29 10:38:48;;;;;;;1.3;1.2;;;;;;;25.3;35.39746;1008.111;;;;
2019/05/29 10:41:25;;;;;;;2.6;1.1;;;;;;;25.4;36.78418;1008.111;;;;
2019/05/29 10:43:50;;;;;;;1.9;1.3;;;;;;;25.56;37.37305;1008.03;;;;
2019/05/29 10:46:15;;;;;;;1.4;1.3;;;;;;;25.56;36.77246;1007.994;;;;
2019/05/29 10:48:40;;;;;;;2.8;1.5;;;;;;;25.46;35.72168;1008.022;;;;
2019/05/29 10:51:09;;;;;;;3.8;1.8;;;;;;;25.02;35.02637;1008.054;;;;
2019/05/29 10:53:34;;;;;;;3.3;1.7;;;;;;;24.85;35.5166;1008.037;;;;
2019/05/29 10:55:59;;;;;;;3.7;1.9;;;;;;;24.49;36.12207;1008.101;;;;
2019/05/29 10:58:24;;;;;;;2.4;1.8;;;;;;;24.42;36.28418;1008.089;;;;
2019/05/29 11:00:49;;;;;;;1.7;1.6;;;;;;;24.28;36.38086;1008.119;;;;
2019/05/29 11:03:14;;;;;;;3.7;2;;;;;;;24.1;36.2832;1008.086;;;;
2019/05/29 11:05:39;;;;;;;3.8;1.9;;;;;;;23.92;36.5918;1008.135;;;;
2019/05/29 11:08:04;;;;;;;2.8;1.4;;;;;;;24.3;36.23926;1008.131;;;;
2019/05/29 11:10:29;;;;;;;1.5;1.4;;;;;;;24.04;36.57617;1008.105;;;;
2019/05/29 11:12:55;;;;;;;3.5;1.9;;;;;;;23.89;37.09082;1008.156;;;;
2019/05/29 11:15:20;;;;;;;2.3;2;;;;;;;23.8;37.23828;1008.138;;;;
2019/05/29 11:17:48;;;;;;;2.5;2.3;;;;;;;23.73;37.32813;1008.099;;;;
2019/05/29 11:20:20;;;;;;;3.7;2.3;;;;;;;23.68;37.12109;1008.076;;;;
2019/05/29 11:22:45;;;;;;;1.8;1.6;;;;;;;23.87;37.30469;1008.082;;;;
2019/05/29 11:25:13;;;;;;;3.4;2;;;;;;;23.64;37.36816;1008.093;;;;
2019/05/29 11:27:41;;;;;;;1.6;1.4;;;;;;;23.81;37.49121;1008.103;;;;
2019/05/29 11:30:17;;;;;;;2.5;2.2;;;;;;;23.68;37.61133;1008.057;;;;
2019/05/29 11:32:42;;;;;;;3.8;2.1;;;;;;;23.84;37.27832;1008.083;;;;
2019/05/29 11:35:06;;;;;;;3.2;1.6;;;;;;;23.99;37.27832;1008.085;;;;
2019/05/29 11:37:32;;;;;;;3;1.7;;;;;;;24.04;36.81641;1008.034;;;;
2019/05/29 11:39:57;;;;;;;2.1;1.8;;;;;;;23.97;37.28809;1008.076;;;;
2019/05/29 11:42:23;;;;;;;2;1.9;;;;;;;23.9;37.25879;1008.098;;;;
2019/05/29 11:44:48;;;;;;;1.7;1.6;;;;;;;23.95;37.15527;1008.097;;;;
2019/05/29 11:47:14;;;;;;;2.6;1.5;;;;;;;24.18;36.92285;1008.06;;;;
2019/05/29 11:49:39;;;;;;;1.6;1.3;;;;;;;24.37;36.48535;1008.074;;;;
2019/05/29 11:52:04;;;;;;;2.7;1.8;;;;;;;24.47;36.22852;1008.066;;;;
2019/05/29 11:54:29;;;;;;;2.6;1.7;;;;;;;24.58;36.18945;1008.055;;;;
2019/05/29 11:56:54;;;;;;;2.2;1.7;;;;;;;24.47;36.4082;1008.035;;;;
2019/05/29 11:59:19;;;;;;;2.9;1.8;;;;;;;24.6;36.17871;1008.054;;;;
2019/05/29 12:01:50;;;;;;;2.4;1.9;;;;;;;24.35;36.70898;1008.008;;;;
2019/05/29 12:04:29;;;;;;;3.2;1.7;;;;;;;24.31;36.34766;1008.039;;;;
2019/05/29 12:07:02;;;;;;;1.7;1.5;;;;;;;24.29;36.48926;1008.054;;;;
2019/05/29 12:09:27;;;;;;;2.8;1.8;;;;;;;24.23;36.31738;1008.028;;;;
2019/05/29 12:11:56;;;;;;;3.4;1.7;;;;;;;24.08;36.62793;1008.036;;;;
2019/05/29 12:14:36;;;;;;;2.5;1.2;;;;;;;24.27;35.86621;1008.005;;;;
2019/05/29 12:17:02;;;;;;;2.6;1.4;;;;;;;24.01;35.47363;1007.975;;;;
2019/05/29 12:19:27;;;;;;;2.2;1.3;;;;;;;24.07;35.77734;1007.975;;;;
2019/05/29 12:21:52;;;;;;;1.8;1.4;;;;;;;23.97;35.83008;1008.028;;;;
2019/05/29 12:24:24;;;;;;;2.6;1.2;;;;;;;24.12;35.70898;1007.983;;;;
2019/05/29 12:26:49;;;;;;;0.9;0.8;;;;;;;24.41;35.16992;1007.938;;;;
2019/05/29 12:29:14;;;;;;;3.2;1.4;;;;;;;24.28;35.12402;1007.97;;;;
2019/05/29 12:31:39;;;;;;;1;0.9;;;;;;;24.53;34.86914;1008.001;;;;
2019/05/29 12:34:04;;;;;;;1.5;0.8;;;;;;;24.67;34.60449;1007.962;;;;
2019/05/29 12:36:30;;;;;;;1.2;0.7;;;;;;;24.84;34.5332;1007.994;;;;
2019/05/29 12:38:55;;;;;;;2.3;1;;;;;;;24.94;34.45703;1007.969;;;;
2019/05/29 12:41:20;;;;;;;1.4;0.7;;;;;;;25.03;34.40332;1007.927;;;;
2019/05/29 12:43:45;;;;;;;1.9;0.9;;;;;;;25.06;34.05957;1007.91;;;;
2019/05/29 12:46:10;;;;;;;1.5;0.8;;;;;;;24.99;34.17383;1007.873;;;;
2019/05/29 12:48:35;;;;;;;2;1.4;;;;;;;24.74;34.2627;1007.877;;;;
2019/05/29 12:51:07;;;;;;;3.2;1.1;;;;;;;24.83;34.88086;1007.868;;;;
2019/05/29 12:53:32;;;;;;;3;0.9;;;;;;;24.97;36.31738;1007.918;;;;
2019/05/29 12:55:58;;;;;;;1.1;0.8;;;;;;;24.99;36.58301;1007.917;;;;
2019/05/29 12:58:23;;;;;;;1.6;1.1;;;;;;;24.85;34.91797;1007.923;;;;
2019/05/29 13:00:48;;;;;;;2.5;1;;;;;;;24.84;36.89453;1007.955;;;;
2019/05/29 13:03:28;;;;;;;2.6;1.5;;;;;;;24.55;36.10352;1008.028;;;;
2019/05/29 13:05:53;;;;;;;3.4;2;;;;;;;24.48;35.23633;1008.057;;;;
2019/05/29 13:08:18;;;;;;;2.9;1.7;;;;;;;24.33;35.91797;1008.056;;;;
2019/05/29 13:10:44;;;;;;;2.8;2;;;;;;;24.31;35.48535;1008.222;;;;
2019/05/29 13:13:09;;;;;;;2.2;1.5;;;;;;;24.08;35.43164;1008.216;;;;
2019/05/29 13:15:34;;;;;;;2.8;1.2;;;;;;;23.94;35.56348;1008.229;;;;
2019/05/29 13:18:16;;;;;;;1.7;1.2;;;;;;;23.75;35.99121;1008.327;;;;
2019/05/29 13:20:41;;;;;;;1.6;0.9;;;;;;;23.69;36.27246;1008.351;;;;
2019/05/29 13:23:06;;;;;;;2.1;0.9;;;;;;;23.59;36.6709;1008.392;;;;
2019/05/29 13:25:34;;;;;;;0.7;0.7;;;;;;;23.3;37.25586;1008.429;;;;
2019/05/29 13:28:03;;;;;;;1.8;1;;;;;;;23.48;37.41504;1008.474;;;;
2019/05/29 13:30:30;;;;;;;1.8;0.8;;;;;;;23.43;37.26758;1008.514;;;;
2019/05/29 13:32:55;;;;;;;1.5;0.9;;;;;;;23.31;37.58008;1008.495;;;;
2019/05/29 13:35:21;;;;;;;2.7;0.9;;;;;;;23.39;37.69434;1008.479;;;;
2019/05/29 13:37:50;;;;;;;2;0.9;;;;;;;23.44;37.51953;1008.469;;;;
2019/05/29 13:40:22;;;;;;;2.3;0.9;;;;;;;23.44;37.56641;1008.478;;;;
2019/05/29 13:43:09;;;;;;;1.4;0.7;;;;;;;23.5;37.44043;1008.521;;;;
2019/05/29 13:45:34;;;;;;;0.9;0.7;;;;;;;23.42;37.56543;1008.485;;;;
2019/05/29 13:47:59;;;;;;;2.1;0.7;;;;;;;23.38;37.4668;1008.461;;;;
2019/05/29 13:50:25;;;;;;;1.4;0.8;;;;;;;23.35;37.20117;1008.513;;;;
2019/05/29 13:52:58;;;;;;;0.7;0.7;;;;;;;23.55;37.54004;1008.614;;;;
2019/05/29 13:55:31;;;;;;;1.4;0.7;;;;;;;23.55;37.05078;1008.513;;;;
2019/05/29 13:57:56;;;;;;;1.3;0.7;;;;;;;23.43;36.88477;1008.521;;;;
2019/05/29 14:00:21;;;;;;;0.7;0.7;;;;;;;23.38;37.07227;1008.508;;;;
2019/05/29 14:02:46;;;;;;;2.2;0.7;;;;;;;23.61;36.93555;1008.516;;;;
2019/05/29 14:05:12;;;;;;;1.4;0.8;;;;;;;23.37;36.91602;1008.491;;;;
2019/05/29 14:07:37;;;;;;;1.9;0.7;;;;;;;23.38;36.92871;1008.559;;;;
2019/05/29 14:10:02;;;;;;;0.8;0.6;;;;;;;23.34;36.96094;1008.514;;;;
2019/05/29 14:12:27;;;;;;;1.4;0.7;;;;;;;23.34;37.04492;1008.548;;;;
2019/05/29 14:14:52;;;;;;;1;0.8;;;;;;;23.41;37.07422;1008.52;;;;
2019/05/29 14:17:17;;;;;;;1.9;0.7;;;;;;;23.54;37.01367;1008.53;;;;
2019/05/29 14:19:51;;;;;;;2.4;1;;;;;;;23.49;36.75879;1008.502;;;;
2019/05/29 14:22:17;;;;;;;1;0.7;;;;;;;23.37;36.55762;1008.482;;;;
2019/05/29 14:24:42;;;;;;;2.5;0.9;;;;;;;23.31;36.4209;1008.426;;;;
2019/05/29 14:27:07;;;;;;;3;1.2;;;;;;;23.31;36.49316;1008.417;;;;